sensor_id;sensor_type;location;lat;lon;timestamp;P1;durP1;ratioP1;P2;durP2;ratioP2
37485;SDS011;23341;50.296;18.960;2022-12-29T00:03:54;31.48;;;11.95;;
37485;SDS011;23341;50.296;18.960;2022-12-29T00:09:37;33.35;;;14.18;;
37485;SDS011;23341;50.296;18.960;2022-12-29T00:15:15;40.25;;;13.25;;
37485;SDS011;23341;50.296;18.960;2022-12-29T00:21:15;43.15;;;14.52;;
37485;SDS011;23341;50.296;18.960;2022-12-29T00:27:12;20.70;;;10.82;;
37485;SDS011;23341;50.296;18.960;2022-12-29T00:33:09;29.15;;;13.40;;
37485;SDS011;23341;50.296;18.960;2022-12-29T00:39:06;28.27;;;11.63;;
37485;SDS011;23341;50.296;18.960;2022-12-29T00:45:05;25.67;;;11.80;;
37485;SDS011;23341;50.296;18.960;2022-12-29T00:50:42;29.80;;;12.35;;
37485;SDS011;23341;50.296;18.960;2022-12-29T00:56:19;26.70;;;10.70;;
37485;SDS011;23341;50.296;18.960;2022-12-29T01:01:57;28.92;;;11.68;;
37485;SDS011;23341;50.296;18.960;2022-12-29T01:07:34;30.90;;;13.43;;
37485;SDS011;23341;50.296;18.960;2022-12-29T01:13:11;26.98;;;12.48;;
37485;SDS011;23341;50.296;18.960;2022-12-29T01:18:49;34.78;;;14.60;;
37485;SDS011;23341;50.296;18.960;2022-12-29T01:24:26;24.17;;;11.88;;
37485;SDS011;23341;50.296;18.960;2022-12-29T01:30:03;23.48;;;10.02;;
37485;SDS011;23341;50.296;18.960;2022-12-29T01:35:42;19.77;;;10.40;;
37485;SDS011;23341;50.296;18.960;2022-12-29T01:41:19;20.73;;;9.50;;
37485;SDS011;23341;50.296;18.960;2022-12-29T01:46:56;16.50;;;8.45;;
37485;SDS011;23341;50.296;18.960;2022-12-29T01:52:35;16.38;;;8.30;;
37485;SDS011;23341;50.296;18.960;2022-12-29T01:58:15;13.93;;;8.82;;
37485;SDS011;23341;50.296;18.960;2022-12-29T02:03:57;15.25;;;8.38;;
37485;SDS011;23341;50.296;18.960;2022-12-29T02:09:36;15.93;;;8.95;;
37485;SDS011;23341;50.296;18.960;2022-12-29T02:15:14;16.73;;;9.07;;
37485;SDS011;23341;50.296;18.960;2022-12-29T02:21:13;14.95;;;8.70;;
37485;SDS011;23341;50.296;18.960;2022-12-29T02:27:29;18.33;;;7.85;;
37485;SDS011;23341;50.296;18.960;2022-12-29T02:33:17;19.88;;;9.27;;
37485;SDS011;23341;50.296;18.960;2022-12-29T02:39:03;13.90;;;8.35;;
37485;SDS011;23341;50.296;18.960;2022-12-29T02:44:51;19.35;;;10.77;;
37485;SDS011;23341;50.296;18.960;2022-12-29T02:50:34;20.42;;;9.85;;
37485;SDS011;23341;50.296;18.960;2022-12-29T02:56:15;29.63;;;12.88;;
37485;SDS011;23341;50.296;18.960;2022-12-29T03:02:01;12.57;;;8.48;;
37485;SDS011;23341;50.296;18.960;2022-12-29T03:07:52;19.52;;;11.10;;
37485;SDS011;23341;50.296;18.960;2022-12-29T03:13:44;14.15;;;9.60;;
37485;SDS011;23341;50.296;18.960;2022-12-29T03:19:44;19.27;;;9.07;;
37485;SDS011;23341;50.296;18.960;2022-12-29T03:25:30;13.70;;;8.15;;
37485;SDS011;23341;50.296;18.960;2022-12-29T03:31:10;12.48;;;7.50;;
37485;SDS011;23341;50.296;18.960;2022-12-29T03:36:37;18.05;;;9.07;;
37485;SDS011;23341;50.296;18.960;2022-12-29T03:42:21;14.68;;;7.30;;
37485;SDS011;23341;50.296;18.960;2022-12-29T03:48:02;13.05;;;8.45;;
37485;SDS011;23341;50.296;18.960;2022-12-29T03:53:41;9.07;;;6.57;;
37485;SDS011;23341;50.296;18.960;2022-12-29T03:59:12;14.75;;;7.13;;
37485;SDS011;23341;50.296;18.960;2022-12-29T04:04:49;10.07;;;6.43;;
37485;SDS011;23341;50.296;18.960;2022-12-29T04:16:19;11.80;;;6.28;;
37485;SDS011;23341;50.296;18.960;2022-12-29T04:21:56;10.40;;;6.80;;
37485;SDS011;23341;50.296;18.960;2022-12-29T04:27:33;9.50;;;5.80;;
37485;SDS011;23341;50.296;18.960;2022-12-29T04:33:31;10.63;;;6.50;;
37485;SDS011;23341;50.296;18.960;2022-12-29T04:39:09;10.38;;;6.22;;
37485;SDS011;23341;50.296;18.960;2022-12-29T04:44:47;9.05;;;6.20;;
37485;SDS011;23341;50.296;18.960;2022-12-29T04:50:46;26.25;;;13.35;;
37485;SDS011;23341;50.296;18.960;2022-12-29T04:56:26;20.15;;;10.88;;
37485;SDS011;23341;50.296;18.960;2022-12-29T05:02:04;18.90;;;8.15;;
37485;SDS011;23341;50.296;18.960;2022-12-29T05:07:43;15.38;;;8.43;;
37485;SDS011;23341;50.296;18.960;2022-12-29T05:13:20;14.15;;;7.45;;
37485;SDS011;23341;50.296;18.960;2022-12-29T05:18:57;17.33;;;11.00;;
37485;SDS011;23341;50.296;18.960;2022-12-29T05:24:35;47.78;;;24.13;;
37485;SDS011;23341;50.296;18.960;2022-12-29T05:30:12;18.88;;;10.27;;
37485;SDS011;23341;50.296;18.960;2022-12-29T05:35:49;22.20;;;10.93;;
37485;SDS011;23341;50.296;18.960;2022-12-29T05:41:31;16.10;;;8.00;;
37485;SDS011;23341;50.296;18.960;2022-12-29T05:47:23;13.13;;;6.80;;
37485;SDS011;23341;50.296;18.960;2022-12-29T05:53:20;22.98;;;12.85;;
37485;SDS011;23341;50.296;18.960;2022-12-29T05:58:58;15.85;;;9.35;;
37485;SDS011;23341;50.296;18.960;2022-12-29T06:04:36;19.00;;;8.38;;
37485;SDS011;23341;50.296;18.960;2022-12-29T06:10:13;15.30;;;7.72;;
37485;SDS011;23341;50.296;18.960;2022-12-29T06:15:53;15.35;;;8.32;;
37485;SDS011;23341;50.296;18.960;2022-12-29T06:21:30;19.17;;;7.75;;
37485;SDS011;23341;50.296;18.960;2022-12-29T06:27:07;16.17;;;8.07;;
37485;SDS011;23341;50.296;18.960;2022-12-29T06:32:45;21.95;;;10.63;;
37485;SDS011;23341;50.296;18.960;2022-12-29T06:38:23;27.10;;;10.75;;
37485;SDS011;23341;50.296;18.960;2022-12-29T06:44:00;24.58;;;10.88;;
37485;SDS011;23341;50.296;18.960;2022-12-29T06:49:50;24.33;;;10.23;;
37485;SDS011;23341;50.296;18.960;2022-12-29T06:55:27;20.52;;;11.38;;
37485;SDS011;23341;50.296;18.960;2022-12-29T07:01:04;20.73;;;9.35;;
37485;SDS011;23341;50.296;18.960;2022-12-29T07:06:42;18.10;;;9.45;;
37485;SDS011;23341;50.296;18.960;2022-12-29T07:12:19;22.58;;;12.48;;
37485;SDS011;23341;50.296;18.960;2022-12-29T07:17:56;30.10;;;10.73;;
37485;SDS011;23341;50.296;18.960;2022-12-29T07:23:34;33.85;;;11.00;;
37485;SDS011;23341;50.296;18.960;2022-12-29T07:29:12;37.80;;;11.82;;
37485;SDS011;23341;50.296;18.960;2022-12-29T07:34:49;29.50;;;10.82;;
37485;SDS011;23341;50.296;18.960;2022-12-29T07:40:27;25.23;;;14.13;;
37485;SDS011;23341;50.296;18.960;2022-12-29T07:46:05;49.08;;;19.98;;
37485;SDS011;23341;50.296;18.960;2022-12-29T07:52:02;32.13;;;13.23;;
37485;SDS011;23341;50.296;18.960;2022-12-29T07:57:40;75.78;;;25.17;;
37485;SDS011;23341;50.296;18.960;2022-12-29T08:03:17;28.90;;;14.18;;
37485;SDS011;23341;50.296;18.960;2022-12-29T08:08:54;24.25;;;13.52;;
37485;SDS011;23341;50.296;18.960;2022-12-29T08:14:41;22.73;;;11.80;;
37485;SDS011;23341;50.296;18.960;2022-12-29T08:20:27;27.65;;;17.77;;
37485;SDS011;23341;50.296;18.960;2022-12-29T08:31:44;19.92;;;11.93;;
37485;SDS011;23341;50.296;18.960;2022-12-29T08:37:21;23.48;;;11.95;;
37485;SDS011;23341;50.296;18.960;2022-12-29T08:42:58;23.35;;;12.05;;
37485;SDS011;23341;50.296;18.960;2022-12-29T08:48:40;29.92;;;11.80;;
37485;SDS011;23341;50.296;18.960;2022-12-29T08:54:18;24.33;;;11.10;;
37485;SDS011;23341;50.296;18.960;2022-12-29T08:59:55;28.05;;;15.25;;
37485;SDS011;23341;50.296;18.960;2022-12-29T09:05:33;51.33;;;22.25;;
37485;SDS011;23341;50.296;18.960;2022-12-29T09:11:12;28.83;;;11.90;;
37485;SDS011;23341;50.296;18.960;2022-12-29T09:16:52;18.67;;;11.10;;
37485;SDS011;23341;50.296;18.960;2022-12-29T09:22:48;20.83;;;11.43;;
37485;SDS011;23341;50.296;18.960;2022-12-29T09:28:26;25.70;;;13.02;;
37485;SDS011;23341;50.296;18.960;2022-12-29T09:34:03;22.02;;;11.57;;
37485;SDS011;23341;50.296;18.960;2022-12-29T09:39:41;21.50;;;11.70;;
37485;SDS011;23341;50.296;18.960;2022-12-29T09:45:27;32.83;;;15.73;;
37485;SDS011;23341;50.296;18.960;2022-12-29T09:51:10;26.58;;;14.23;;
37485;SDS011;23341;50.296;18.960;2022-12-29T09:56:51;30.23;;;14.63;;
37485;SDS011;23341;50.296;18.960;2022-12-29T10:02:31;24.00;;;12.95;;
37485;SDS011;23341;50.296;18.960;2022-12-29T10:08:17;31.27;;;13.68;;
37485;SDS011;23341;50.296;18.960;2022-12-29T10:14:11;27.90;;;14.52;;
37485;SDS011;23341;50.296;18.960;2022-12-29T10:26:05;33.55;;;16.10;;
37485;SDS011;23341;50.296;18.960;2022-12-29T10:31:54;40.30;;;19.50;;
37485;SDS011;23341;50.296;18.960;2022-12-29T10:37:37;22.25;;;11.60;;
37485;SDS011;23341;50.296;18.960;2022-12-29T10:43:21;31.00;;;14.18;;
37485;SDS011;23341;50.296;18.960;2022-12-29T10:49:28;42.17;;;18.58;;
37485;SDS011;23341;50.296;18.960;2022-12-29T10:55:02;65.32;;;29.70;;
37485;SDS011;23341;50.296;18.960;2022-12-29T11:00:49;52.00;;;23.13;;
37485;SDS011;23341;50.296;18.960;2022-12-29T11:06:33;26.70;;;14.75;;
37485;SDS011;23341;50.296;18.960;2022-12-29T11:12:22;28.10;;;12.80;;
37485;SDS011;23341;50.296;18.960;2022-12-29T11:18:01;19.65;;;10.10;;
37485;SDS011;23341;50.296;18.960;2022-12-29T11:23:40;18.48;;;9.45;;
37485;SDS011;23341;50.296;18.960;2022-12-29T11:29:21;15.85;;;9.68;;
37485;SDS011;23341;50.296;18.960;2022-12-29T11:35:00;22.98;;;12.05;;
37485;SDS011;23341;50.296;18.960;2022-12-29T11:40:39;29.50;;;16.08;;
37485;SDS011;23341;50.296;18.960;2022-12-29T11:46:16;25.42;;;12.43;;
37485;SDS011;23341;50.296;18.960;2022-12-29T11:51:56;22.55;;;11.88;;
37485;SDS011;23341;50.296;18.960;2022-12-29T11:57:34;21.70;;;12.02;;
37485;SDS011;23341;50.296;18.960;2022-12-29T12:03:12;24.60;;;12.90;;
37485;SDS011;23341;50.296;18.960;2022-12-29T12:08:53;18.60;;;10.35;;
37485;SDS011;23341;50.296;18.960;2022-12-29T12:14:36;18.08;;;11.10;;
37485;SDS011;23341;50.296;18.960;2022-12-29T12:20:34;18.15;;;9.63;;
37485;SDS011;23341;50.296;18.960;2022-12-29T12:26:12;19.55;;;11.52;;
37485;SDS011;23341;50.296;18.960;2022-12-29T12:31:54;26.58;;;13.45;;
37485;SDS011;23341;50.296;18.960;2022-12-29T12:37:46;18.98;;;12.27;;
37485;SDS011;23341;50.296;18.960;2022-12-29T12:43:43;20.50;;;11.55;;
37485;SDS011;23341;50.296;18.960;2022-12-29T12:49:33;21.30;;;11.45;;
37485;SDS011;23341;50.296;18.960;2022-12-29T12:55:31;23.80;;;13.60;;
37485;SDS011;23341;50.296;18.960;2022-12-29T13:01:24;26.90;;;16.83;;
37485;SDS011;23341;50.296;18.960;2022-12-29T13:07:15;25.58;;;14.35;;
37485;SDS011;23341;50.296;18.960;2022-12-29T13:13:31;22.20;;;10.70;;
37485;SDS011;23341;50.296;18.960;2022-12-29T13:19:23;20.75;;;12.23;;
37485;SDS011;23341;50.296;18.960;2022-12-29T13:25:13;21.55;;;12.50;;
37485;SDS011;23341;50.296;18.960;2022-12-29T13:36:49;20.52;;;11.13;;
37485;SDS011;23341;50.296;18.960;2022-12-29T13:42:40;19.98;;;9.85;;
37485;SDS011;23341;50.296;18.960;2022-12-29T13:48:19;15.88;;;9.27;;
37485;SDS011;23341;50.296;18.960;2022-12-29T13:54:11;18.38;;;12.73;;
37485;SDS011;23341;50.296;18.960;2022-12-29T13:59:58;21.05;;;12.68;;
37485;SDS011;23341;50.296;18.960;2022-12-29T14:11:49;28.57;;;14.97;;
37485;SDS011;23341;50.296;18.960;2022-12-29T14:17:27;27.70;;;14.20;;
37485;SDS011;23341;50.296;18.960;2022-12-29T14:23:15;29.80;;;15.77;;
37485;SDS011;23341;50.296;18.960;2022-12-29T14:28:54;43.97;;;21.38;;
37485;SDS011;23341;50.296;18.960;2022-12-29T14:34:36;38.58;;;20.20;;
37485;SDS011;23341;50.296;18.960;2022-12-29T14:40:16;31.27;;;19.13;;
37485;SDS011;23341;50.296;18.960;2022-12-29T14:45:57;46.53;;;21.80;;
37485;SDS011;23341;50.296;18.960;2022-12-29T14:51:39;41.20;;;21.95;;
37485;SDS011;23341;50.296;18.960;2022-12-29T14:57:19;41.53;;;20.88;;
37485;SDS011;23341;50.296;18.960;2022-12-29T15:03:02;38.63;;;21.85;;
37485;SDS011;23341;50.296;18.960;2022-12-29T15:09:12;61.33;;;29.15;;
37485;SDS011;23341;50.296;18.960;2022-12-29T15:15:19;37.85;;;21.48;;
37485;SDS011;23341;50.296;18.960;2022-12-29T15:20:58;47.85;;;23.00;;
37485;SDS011;23341;50.296;18.960;2022-12-29T15:26:39;30.15;;;19.23;;
37485;SDS011;23341;50.296;18.960;2022-12-29T15:32:20;47.88;;;22.15;;
37485;SDS011;23341;50.296;18.960;2022-12-29T15:37:59;37.38;;;16.73;;
37485;SDS011;23341;50.296;18.960;2022-12-29T15:43:40;26.80;;;15.75;;
37485;SDS011;23341;50.296;18.960;2022-12-29T15:49:42;23.67;;;13.63;;
37485;SDS011;23341;50.296;18.960;2022-12-29T15:55:37;19.02;;;12.48;;
37485;SDS011;23341;50.296;18.960;2022-12-29T16:01:27;26.33;;;14.75;;
37485;SDS011;23341;50.296;18.960;2022-12-29T16:07:29;29.48;;;17.77;;
37485;SDS011;23341;50.296;18.960;2022-12-29T16:13:12;37.63;;;21.27;;
37485;SDS011;23341;50.296;18.960;2022-12-29T16:19:02;84.90;;;31.75;;
37485;SDS011;23341;50.296;18.960;2022-12-29T16:24:46;33.20;;;18.85;;
37485;SDS011;23341;50.296;18.960;2022-12-29T16:30:27;34.45;;;20.88;;
37485;SDS011;23341;50.296;18.960;2022-12-29T16:42:32;43.83;;;21.23;;
37485;SDS011;23341;50.296;18.960;2022-12-29T16:48:17;52.15;;;25.60;;
37485;SDS011;23341;50.296;18.960;2022-12-29T16:53:57;33.95;;;19.25;;
37485;SDS011;23341;50.296;18.960;2022-12-29T16:59:36;34.97;;;18.10;;
37485;SDS011;23341;50.296;18.960;2022-12-29T17:05:17;37.00;;;21.08;;
37485;SDS011;23341;50.296;18.960;2022-12-29T17:11:35;35.58;;;18.42;;
37485;SDS011;23341;50.296;18.960;2022-12-29T17:17:32;47.83;;;25.40;;
37485;SDS011;23341;50.296;18.960;2022-12-29T17:23:12;42.50;;;22.00;;
37485;SDS011;23341;50.296;18.960;2022-12-29T17:28:52;38.92;;;20.98;;
37485;SDS011;23341;50.296;18.960;2022-12-29T17:34:29;49.25;;;28.17;;
37485;SDS011;23341;50.296;18.960;2022-12-29T17:40:09;49.45;;;29.15;;
37485;SDS011;23341;50.296;18.960;2022-12-29T17:45:51;53.70;;;28.73;;
37485;SDS011;23341;50.296;18.960;2022-12-29T17:51:30;56.05;;;28.95;;
37485;SDS011;23341;50.296;18.960;2022-12-29T17:57:11;50.08;;;27.27;;
37485;SDS011;23341;50.296;18.960;2022-12-29T18:02:50;49.28;;;26.05;;
37485;SDS011;23341;50.296;18.960;2022-12-29T18:08:27;54.65;;;28.23;;
37485;SDS011;23341;50.296;18.960;2022-12-29T18:14:05;47.60;;;23.48;;
37485;SDS011;23341;50.296;18.960;2022-12-29T18:19:46;52.40;;;26.85;;
37485;SDS011;23341;50.296;18.960;2022-12-29T18:25:24;51.88;;;27.25;;
37485;SDS011;23341;50.296;18.960;2022-12-29T18:31:02;44.43;;;25.10;;
37485;SDS011;23341;50.296;18.960;2022-12-29T18:36:40;36.67;;;20.10;;
37485;SDS011;23341;50.296;18.960;2022-12-29T18:42:16;39.03;;;20.55;;
37485;SDS011;23341;50.296;18.960;2022-12-29T18:47:53;65.40;;;31.52;;
37485;SDS011;23341;50.296;18.960;2022-12-29T18:53:32;39.25;;;20.30;;
37485;SDS011;23341;50.296;18.960;2022-12-29T18:59:08;41.78;;;21.95;;
37485;SDS011;23341;50.296;18.960;2022-12-29T19:04:46;38.92;;;19.92;;
37485;SDS011;23341;50.296;18.960;2022-12-29T19:10:30;42.92;;;21.00;;
37485;SDS011;23341;50.296;18.960;2022-12-29T19:16:07;46.22;;;22.38;;
37485;SDS011;23341;50.296;18.960;2022-12-29T19:21:53;45.58;;;23.17;;
37485;SDS011;23341;50.296;18.960;2022-12-29T19:27:32;49.03;;;24.85;;
37485;SDS011;23341;50.296;18.960;2022-12-29T19:33:08;42.67;;;22.95;;
37485;SDS011;23341;50.296;18.960;2022-12-29T19:38:46;48.55;;;24.58;;
37485;SDS011;23341;50.296;18.960;2022-12-29T19:44:24;36.05;;;21.05;;
37485;SDS011;23341;50.296;18.960;2022-12-29T19:50:01;42.20;;;21.17;;
37485;SDS011;23341;50.296;18.960;2022-12-29T19:55:40;35.05;;;18.25;;
37485;SDS011;23341;50.296;18.960;2022-12-29T20:01:20;41.33;;;17.95;;
37485;SDS011;23341;50.296;18.960;2022-12-29T20:06:57;31.75;;;16.13;;
37485;SDS011;23341;50.296;18.960;2022-12-29T20:12:38;30.77;;;16.95;;
37485;SDS011;23341;50.296;18.960;2022-12-29T20:18:17;25.45;;;14.30;;
37485;SDS011;23341;50.296;18.960;2022-12-29T20:23:53;32.63;;;15.73;;
37485;SDS011;23341;50.296;18.960;2022-12-29T20:29:31;33.38;;;16.40;;
37485;SDS011;23341;50.296;18.960;2022-12-29T20:35:10;28.38;;;16.25;;
37485;SDS011;23341;50.296;18.960;2022-12-29T20:40:48;31.50;;;18.35;;
37485;SDS011;23341;50.296;18.960;2022-12-29T20:46:26;23.85;;;13.20;;
37485;SDS011;23341;50.296;18.960;2022-12-29T20:52:06;30.42;;;17.13;;
37485;SDS011;23341;50.296;18.960;2022-12-29T20:57:42;26.73;;;14.13;;
37485;SDS011;23341;50.296;18.960;2022-12-29T21:03:39;24.48;;;12.27;;
37485;SDS011;23341;50.296;18.960;2022-12-29T21:09:18;19.73;;;11.38;;
37485;SDS011;23341;50.296;18.960;2022-12-29T21:14:54;28.05;;;14.85;;
37485;SDS011;23341;50.296;18.960;2022-12-29T21:20:31;24.92;;;15.38;;
37485;SDS011;23341;50.296;18.960;2022-12-29T21:32:08;37.10;;;17.00;;
37485;SDS011;23341;50.296;18.960;2022-12-29T21:37:45;25.73;;;13.07;;
37485;SDS011;23341;50.296;18.960;2022-12-29T21:43:24;33.95;;;16.15;;
37485;SDS011;23341;50.296;18.960;2022-12-29T21:49:01;24.50;;;14.88;;
37485;SDS011;23341;50.296;18.960;2022-12-29T21:54:38;30.27;;;15.45;;
37485;SDS011;23341;50.296;18.960;2022-12-29T22:00:33;27.17;;;13.23;;
37485;SDS011;23341;50.296;18.960;2022-12-29T22:06:36;31.20;;;13.88;;
37485;SDS011;23341;50.296;18.960;2022-12-29T22:12:34;25.88;;;12.93;;
37485;SDS011;23341;50.296;18.960;2022-12-29T22:18:34;25.13;;;12.93;;
37485;SDS011;23341;50.296;18.960;2022-12-29T22:24:42;31.65;;;15.90;;
37485;SDS011;23341;50.296;18.960;2022-12-29T22:30:19;33.70;;;15.93;;
37485;SDS011;23341;50.296;18.960;2022-12-29T22:35:57;27.30;;;16.08;;
37485;SDS011;23341;50.296;18.960;2022-12-29T22:41:33;27.30;;;14.30;;
37485;SDS011;23341;50.296;18.960;2022-12-29T22:47:10;23.92;;;13.55;;
37485;SDS011;23341;50.296;18.960;2022-12-29T22:52:58;24.25;;;12.80;;
37485;SDS011;23341;50.296;18.960;2022-12-29T22:59:16;16.98;;;11.05;;
37485;SDS011;23341;50.296;18.960;2022-12-29T23:04:53;18.88;;;9.77;;
37485;SDS011;23341;50.296;18.960;2022-12-29T23:10:32;20.90;;;11.10;;
37485;SDS011;23341;50.296;18.960;2022-12-29T23:16:08;25.48;;;15.57;;
37485;SDS011;23341;50.296;18.960;2022-12-29T23:21:45;25.38;;;14.15;;
37485;SDS011;23341;50.296;18.960;2022-12-29T23:27:24;22.98;;;11.75;;
37485;SDS011;23341;50.296;18.960;2022-12-29T23:33:00;20.38;;;12.38;;
37485;SDS011;23341;50.296;18.960;2022-12-29T23:38:38;26.10;;;14.18;;
37485;SDS011;23341;50.296;18.960;2022-12-29T23:44:17;13.02;;;8.88;;
37485;SDS011;23341;50.296;18.960;2022-12-29T23:49:53;25.35;;;12.02;;
37485;SDS011;23341;50.296;18.960;2022-12-29T23:55:30;19.38;;;12.30;;
